DAMPETORP Weather Reports


Display with metric or nautical units.
time (UTC)temp
F
wind
direction
speed
MPH
gust
MPH
rain 1hr
in
rain 24hr
in
rain mn
in
humidity
%
barometer
mb
20240522174558 68 132 2.0 6.0 0.00 0.00 0.00 39 1017.4
20240522173057 69 324 1.0 8.0 0.00 0.00 0.00 38 1017.4
20240522171657 70 311 2.0 10.0 0.00 0.00 0.00 38 1017.4
20240522170056 70 309 2.0 10.0 0.00 0.00 0.00 37 1017.3
20240522164604 71 341 3.0 9.0 0.00 0.00 0.00 40 1017.3
20240522163056 71 332 3.0 11.0 0.00 0.00 0.00 41 1017.2
20240522161555 72 9 3.0 8.0 0.00 0.00 0.00 42 1017.2
20240522160054 72 82 5.0 13.0 0.00 0.00 0.00 41 1017.3
20240522154553 73 285 2.0 12.0 0.00 0.00 0.00 41 1017.3
20240522153052 73 311 4.0 9.0 0.00 0.00 0.00 42 1017.4
20240522151556 73 309 6.0 11.0 0.00 0.00 0.00 42 1017.3
20240522150050 74 311 4.0 10.0 0.00 0.00 0.00 43 1017.4
20240522144605 74 281 5.0 11.0 0.00 0.00 0.00 43 1017.4
20240522143048 74 321 7.0 16.0 0.00 0.00 0.00 43 1017.6
20240522141553 75 302 2.0 12.0 0.00 0.00 0.00 42 1017.7
20240522140047 75 262 3.0 11.0 0.00 0.00 0.00 43 1017.8
20240522134551 75 22 6.0 11.0 0.00 0.00 0.00 43 1017.7
20240522133044 75 248 5.0 12.0 0.00 0.00 0.00 43 1017.8
20240522131548 74 191 4.0 13.0 0.00 0.00 0.00 42 1017.8
20240522130042 75 257 4.0 11.0 0.00 0.00 0.00 40 1017.9
20240522124540 74 308 2.0 9.0 0.00 0.00 0.00 41 1017.9
20240522123039 74 185 3.0 11.0 0.00 0.00 0.00 42 1018.1
20240522121538 74 139 6.0 11.0 0.00 0.00 0.00 38 1018.2
20240522120036 73 252 4.0 13.0 0.00 0.00 0.00 39 1018.3
20240522114541 73 162 3.0 9.0 0.00 0.00 0.00 38 1018.4
20240522113038 72 265 3.0 12.0 0.00 0.00 0.00 40 1018.4
20240522111532 72 224 4.0 10.0 0.00 0.00 0.00 39 1018.4
20240522110030 72 172 2.0 11.0 0.00 0.00 0.00 39 1018.4
20240522104529 73 176 2.0 10.0 0.00 0.00 0.00 39 1018.7
20240522103026 71 283 3.0 15.0 0.00 0.00 0.00 39 1018.8
20240522101524 71 127 3.0 11.0 0.00 0.00 0.00 39 1018.8
20240522100022 70 180 4.0 13.0 0.00 0.00 0.00 38 1019.1
20240522094524 70 326 4.0 11.0 0.00 0.00 0.00 40 1019.0
20240522093018 69 90 2.0 13.0 0.00 0.00 0.00 43 1019.0
20240522091530 69 198 5.0 13.0 0.00 0.00 0.00 40 1019.1
20240522090013 68 85 4.0 9.0 0.00 0.00 0.00 41 1019.1
20240522084511 67 211 2.0 14.0 0.00 0.00 0.00 42 1019.1
20240522083008 67 276 5.0 10.0 0.00 0.00 0.00 41 1019.2
20240522081505 67 122 3.0 8.0 0.00 0.00 0.00 44 1019.1
20240522080002 65 338 1.0 15.0 0.00 0.00 0.00 46 1019.2
20240522074601 65 143 3.0 11.0 0.00 0.00 0.00 45 1019.3
20240522074501 65 314 2.0 11.0 0.00 0.00 0.00 47 1019.3
20240522073055 63 143 3.0 10.0 0.00 0.00 0.00 48 1019.3
20240522071553 63 308 1.0 6.0 0.00 0.00 0.00 49 1019.4
20240522070059 62 252 3.0 7.0 0.00 0.00 0.00 51 1019.3
20240522064548 61 304 2.0 7.0 0.00 0.00 0.00 51 1019.4
20240522063045 60 297 2.0 7.0 0.00 0.00 0.00 52 1019.4
20240522061547 58 134 2.0 8.0 0.00 0.00 0.00 54 1019.4
20240522060040 57 162 1.0 5.0 0.00 0.00 0.00 54 1019.3
20240522054544 57 134 2.0 6.0 0.00 0.00 0.00 55 1019.4
20240522053032 55 166 2.0 7.0 0.00 0.00 0.00 57 1019.4
20240522051534 55 86 1.0 6.0 0.00 0.00 0.00 56 1019.5
20240522050029 54 157 0.0 7.0 0.00 0.00 0.00 57 1019.4
20240522044526 53 262 1.0 5.0 0.00 0.00 0.00 57 1019.6
20240522043032 52 141 1.0 5.0 0.00 0.00 0.00 58 1019.5
20240522041530 51 93 1.0 4.0 0.00 0.00 0.00 61 1019.4
20240522040017 49 77 0.0 1.0 0.00 0.00 0.00 67 1019.6
20240522034520 48 77 0.0 2.0 0.00 0.00 0.00 70 1019.6
20240522033014 46 77 0.0 2.0 0.00 0.00 0.00 69 1019.7
20240522031514 43 76 0.0 0.0 0.00 0.00 0.00 76 1019.7
20240522030012 41 77 0.0 0.0 0.00 0.00 0.00 80 1019.9
20240522024514 40 77 0.0 0.0 0.00 0.00 0.00 80 1019.8
20240522023010 39 77 0.0 0.0 0.00 0.00 0.00 80 1019.9
20240522021509 39 76 0.0 0.0 0.00 0.00 0.00 80 1019.8
20240522020015 39 77 0.0 0.0 0.00 0.00 0.00 79 1019.9
20240522014517 39 76 0.0 0.0 0.00 0.00 0.00 81 1019.9
20240522013005 39 77 0.0 1.0 0.00 0.00 0.00 80 1020.0
20240522011503 39 77 0.0 1.0 0.00 0.00 0.00 80 1020.0
20240522010002 39 77 0.0 1.0 0.00 0.00 0.00 79 1020.1
20240522004607 39 77 0.0 0.0 0.00 0.00 0.00 79 1020.0
20240522003057 40 76 0.0 0.0 0.00 0.00 0.00 77 1020.1
20240522001554 40 77 0.0 0.0 0.00 0.00 0.00 76 1020.3
20240522000055 41 76 0.0 0.0 0.00 0.00 0.00 74 1020.3
20240521234550 41 76 0.0 0.0 0.00 0.00 0.00 72 1020.4
20240521233047 42 77 0.0 0.0 0.00 0.00 0.00 71 1020.4
20240521231550 43 76 0.0 0.0 0.00 0.00 0.00 68 1020.5
20240521230045 44 77 0.0 0.0 0.00 0.00 0.00 65 1020.6
20240521224537 45 76 0.0 0.0 0.00 0.00 0.00 62 1020.7
20240521223033 47 77 0.0 0.0 0.00 0.00 0.00 59 1020.7
20240521221533 49 77 0.0 0.0 0.00 0.00 0.00 52 1020.6
20240521220029 49 77 0.0 0.0 0.00 0.00 0.00 50 1020.7
20240521214525 50 76 0.0 0.0 0.00 0.00 0.00 47 1020.8
20240521213024 51 77 0.0 1.0 0.00 0.00 0.00 47 1020.7
20240521211524 52 298 0.0 1.0 0.00 0.00 0.00 48 1020.7
20240521210024 53 84 0.0 1.0 0.00 0.00 0.00 46 1020.7
20240521204523 54 87 0.0 1.0 0.00 0.00 0.00 45 1020.6
20240521203025 55 10 0.0 4.0 0.00 0.00 0.00 42 1020.5
20240521201523 56 335 1.0 4.0 0.00 0.00 0.00 39 1020.4
20240521200022 57 70 1.0 5.0 0.00 0.00 0.00 37 1020.4
20240521194521 58 307 2.0 6.0 0.00 0.00 0.00 35 1020.2
20240521193020 59 302 1.0 4.0 0.00 0.00 0.00 32 1020.1
20240521191527 60 68 1.0 4.0 0.00 0.00 0.00 29 1020.0
20240521190020 61 328 2.0 6.0 0.00 0.00 0.00 26 1019.9
20240521184529 62 337 2.0 7.0 0.00 0.00 0.00 25 1019.7
20240521183019 63 312 3.0 6.0 0.00 0.00 0.00 27 1019.6
20240521181518 64 28 2.0 6.0 0.00 0.00 0.00 29 1019.6
20240521180017 66 296 0.0 4.0 0.00 0.00 0.00 30 1019.5